Detalii statie AGRICHIM STEFAN CEL MARE [0000198F]

Toti senzorii

Date Temperatura solului [C]Precipitatii [mm]Voltaj baterie [mV]HC Air temperature [C]HC Relative humidity [%]Punctul de roua [C]
medieminmaxsumaultimamedieminmaxmediemediemin
2017-12-10 21:00:00 3.3 3.3 3.5 0 6826 0.16 -0.04 0.27 100 0.1 0
2017-12-10 22:00:00 3.2 3.2 3.3 0 6826 -0.23 -0.35 -0.05 100 -0.1 -0.2
2017-12-10 23:00:00 3.1 3 3.2 0 6816 -0.58 -1.23 -0.16 100 -0.4 -1.1
2017-12-11 00:00:00 3 2.9 3.1 0 6826 -1.1 -1.29 -0.91 100 -0.9 -1.1
2017-12-11 01:00:00 2.8 2.8 3 0 6816 -0.92 -1.04 -0.71 100 -0.8 -0.9
2017-12-11 02:00:00 2.7 2.6 2.9 0 6816 -0.76 -0.95 -0.63 100 -0.6 -0.8
2017-12-11 03:00:00 2.6 2.5 2.8 0 6826 -1.48 -1.97 -0.84 100 -1.3 -1.8
2017-12-11 04:00:00 2.5 2.5 2.7 0 6816 -1.89 -2.05 -1.76 100 -1.7 -1.9
2017-12-11 05:00:00 2.4 2.3 2.6 0 6816 -1.9 -2.06 -1.76 100 -1.7 -1.9
2017-12-11 06:00:00 2.4 2.3 2.5 0 6806 -2.31 -2.43 -2.17 100 -2.1 -2.3
2017-12-11 07:00:00 2.3 2.2 2.4 0 6806 -2.27 -2.52 -2.15 100 -2.1 -2.4
2017-12-11 08:00:00 2.2 2.1 2.3 0 6796 -1.83 -2.19 -1.57 100 -1.6 -2
2017-12-11 09:00:00 2.1 2 2.3 0 6816 -1.33 -1.62 -0.68 100 -1.1 -1.5
2017-12-11 10:00:00 2 2 2.2 0 6894 0.15 -0.47 0.94 100 0.2 -0.3
2017-12-11 11:00:00 2 1.9 2.3 0 7254 2.03 1.12 3.41 100 1.9 1.1
2017-12-11 12:00:00 2 2 2.3 0 7216 3.87 3.09 4.35 100 3.8 3
2017-12-11 13:00:00 2 1.9 2.2 0 7254 4.94 4.48 5.7 100 4.9 4.4
2017-12-11 14:00:00 2.2 2.1 2.4 0 7236 5.95 5.58 6.5 100 5.9 5.5
2017-12-11 15:00:00 2.5 2.4 2.7 0 7226 5.34 5.17 5.5 100 5.2 5.1
2017-12-11 16:00:00 2.7 2.7 2.9 0 7040 4.54 3.86 5.2 100 4.5 3.8
2017-12-11 17:00:00 2.8 2.8 3 0 6992 3.39 3.14 3.7 100 3.3 3.1
2017-12-11 18:00:00 2.9 2.9 3 0 6962 2.83 2.49 3.09 100 2.7 2.4
2017-12-11 19:00:00 2.9 2.9 3 0 6952 2.39 2.02 2.91 100 2.3 2
2017-12-11 20:00:00 2.9 2.8 3.1 0 6932 2.84 2.29 3.36 100 2.7 2.2
2017-12-11 21:00:00 2.9 2.8 3 0 6932 2.25 1.69 2.9 100 2.2 1.6
2017-12-11 22:00:00 2.8 2.8 2.9 0 6922 0.96 0.33 1.73 100 0.9 0.3
2017-12-11 23:00:00 2.7 2.7 2.9 0 6904 0.44 0.16 0.7 100 0.4 0.1
2017-12-12 00:00:00 2.7 2.7 2.7 0 6894 0.64 -0.02 1.25 100 0.6 0
2017-12-12 01:00:00 2.6 2.5 2.7 0 6894 0.18 -0.14 0.57 100 0.1 0
2017-12-12 02:00:00 2.5 2.4 2.7 0 6884 -0.2 -0.63 0.4 100 -0.1 -0.5
2017-12-12 03:00:00 2.4 2.4 2.6 0 6874 -0.18 -0.59 0.44 100 -0.1 -0.4
2017-12-12 04:00:00 2.4 2.3 2.6 0 6884 0.41 -0.18 1.03 100 0.3 0
2017-12-12 05:00:00 2.4 2.3 2.5 0 6874 -0.47 -0.65 -0.16 100 -0.3 -0.5
2017-12-12 06:00:00 2.3 2.3 2.4 0 6874 0.42 -0.12 0.77 100 0.4 0
2017-12-12 07:00:00 2.2 2.2 2.3 0 6874 0.45 0.15 0.79 100 0.4 0.1
2017-12-12 08:00:00 2.2 2.1 2.3 0 6874 0.21 0.02 0.39 100 0.1 0
2017-12-12 09:00:00 2.1 2.1 2.2 0 6904 1.33 0.49 2.44 100 1.2 0.4
2017-12-12 10:00:00 2.1 2 2.2 0 7000 3.32 2.63 4.01 100 3.2 2.6
2017-12-12 11:00:00 2.1 2 2.3 0 7254 6.15 4.14 8.13 100 6.1 4.1
2017-12-12 12:00:00 2.2 2.1 2.4 0 7236 9.54 8.64 10.11 100 9.5 8.6
2017-12-12 13:00:00 2.5 2.3 2.7 0 7254 11.61 10.22 13.4 100 11.5 10.2
2017-12-12 14:00:00 2.9 2.7 3.2 0 7176 13.63 12.98 14.05 100 13.5 12.9
2017-12-12 15:00:00 3.4 3.2 3.7 0 7236 12.78 12.6 12.89 100 12.7 12.6
2017-12-12 16:00:00 3.7 3.6 3.9 0 7040 11.32 10.03 12.38 100 11.2 10
2017-12-12 17:00:00 3.9 3.7 4.1 0 7010 8.83 7.94 9.76 100 8.8 7.9
2017-12-12 18:00:00 4.1 4.1 4.1 0 6972 7.64 7.4 7.82 100 7.6 7.4
2017-12-12 19:00:00 4 3.9 4.1 0 6962 6.5 5.9 7.39 100 6.4 5.9